createdAt,value
2023-09-03T00:00:03.255Z,0
2023-09-03T00:15:02.664Z,0
2023-09-03T00:30:03.191Z,0
2023-09-03T00:45:02.542Z,0
2023-09-03T01:00:03.221Z,0
2023-09-03T01:15:02.443Z,0
2023-09-03T01:30:02.855Z,0
2023-09-03T01:45:02.302Z,0
2023-09-03T02:00:02.738Z,0
2023-09-03T02:15:03.231Z,0
2023-09-03T02:30:02.652Z,0
2023-09-03T02:45:03.225Z,0
2023-09-03T03:00:02.466Z,0
2023-09-03T03:15:02.899Z,0
2023-09-03T03:30:02.312Z,0
2023-09-03T03:45:02.764Z,0
2023-09-03T04:00:03.214Z,0
2023-09-03T04:15:02.660Z,0
2023-09-03T04:30:02.243Z,0
2023-09-03T04:45:02.527Z,0
2023-09-03T05:00:02.968Z,15
2023-09-03T05:15:02.423Z,23
2023-09-03T05:30:02.855Z,41
2023-09-03T05:45:02.305Z,49
2023-09-03T06:00:02.746Z,62
2023-09-03T06:15:03.257Z,121
2023-09-03T06:30:02.627Z,149
2023-09-03T06:45:03.262Z,243
2023-09-03T07:00:02.488Z,266
2023-09-03T07:15:02.950Z,238
2023-09-03T07:30:02.383Z,290
2023-09-03T07:45:02.807Z,340
2023-09-03T08:00:02.268Z,337
2023-09-03T08:15:02.711Z,386
2023-09-03T08:30:03.271Z,430
2023-09-03T08:45:02.589Z,499
2023-09-03T09:00:03.275Z,374
2023-09-03T09:15:02.473Z,373
2023-09-03T09:30:02.927Z,455
2023-09-03T09:45:02.349Z,444
2023-09-03T10:00:02.810Z,559
2023-09-03T10:15:03.313Z,480
2023-09-03T10:30:02.714Z,505
2023-09-03T10:45:03.308Z,555
2023-09-03T11:00:02.552Z,464
2023-09-03T11:15:03.023Z,519
2023-09-03T11:30:02.446Z,540
2023-09-03T11:45:02.889Z,494
2023-09-03T12:00:02.337Z,510
2023-09-03T12:15:02.764Z,522
2023-09-03T12:30:02.318Z,377
2023-09-03T12:45:02.653Z,553
2023-09-03T13:00:03.324Z,487
2023-09-03T13:15:02.536Z,525
2023-09-03T13:30:02.979Z,462
2023-09-03T13:45:02.413Z,400
2023-09-03T14:00:03.001Z,487
2023-09-03T14:15:02.383Z,328
2023-09-03T14:30:02.758Z,218
2023-09-03T14:45:03.340Z,341
2023-09-03T15:00:02.639Z,182
2023-09-03T15:15:03.288Z,272
2023-09-03T15:30:02.564Z,223
2023-09-03T15:45:02.966Z,153
2023-09-03T16:00:02.467Z,139
2023-09-03T16:15:02.840Z,110
2023-09-03T16:30:02.426Z,139
2023-09-03T16:45:02.719Z,100
2023-09-03T17:00:03.364Z,85
2023-09-03T17:15:02.646Z,61
2023-09-03T17:30:03.061Z,28
2023-09-03T17:45:02.520Z,12
2023-09-03T18:00:02.947Z,1
2023-09-03T18:15:02.375Z,0
2023-09-03T18:30:02.827Z,0
2023-09-03T18:45:02.356Z,0
2023-09-03T19:00:02.720Z,0
2023-09-03T19:15:03.382Z,0
2023-09-03T19:30:02.603Z,0
2023-09-03T19:45:03.026Z,0
2023-09-03T20:00:02.456Z,0
2023-09-03T20:15:02.911Z,0
2023-09-03T20:30:02.397Z,0
2023-09-03T20:45:02.774Z,0
2023-09-03T21:00:03.407Z,0
2023-09-03T21:15:02.650Z,0
2023-09-03T21:30:03.139Z,0
2023-09-03T21:45:02.530Z,0
2023-09-03T22:00:02.989Z,0
2023-09-03T22:15:02.433Z,0
2023-09-03T22:30:02.870Z,0
2023-09-03T22:45:02.420Z,0
2023-09-03T23:00:02.731Z,0
2023-09-03T23:15:03.172Z,0
2023-09-03T23:30:02.618Z,0
2023-09-03T23:45:03.046Z,0
